Time;durP1;ratioP1;P1;durP2;ratioP2;P2;SDS_P1;SDS_P2;PMS_P1;PMS_P2;Temp;Humidity;BMP_temperature;BMP_pressure;BME280_temperature;BME280_humidity;BME280_pressure;Samples;Min_cycle;Max_cycle;Signal;HPM_P1;HPM_P2
2022/01/29 00:00:21;;;;;;;;;;;6.40;99.90;;;;;;5095426;28;19924;-73
2022/01/29 00:02:47;;;;;;;;;;;7.10;99.90;;;;;;5094873;28;19924;-73
2022/01/29 00:05:12;;;;;;;;;;;6.80;99.90;;;;;;5095732;28;19972;-72
2022/01/29 00:07:41;;;;;;;;;;;7.30;99.90;;;;;;5095864;28;20298;-73
2022/01/29 00:10:07;;;;;;;;;;;6.40;99.90;;;;;;5095707;28;20010;-73
2022/01/29 00:12:33;;;;;;;;;;;6.40;99.90;;;;;;5095763;28;19924;-74
2022/01/29 00:14:58;;;;;;;;;;;6.40;99.90;;;;;;5095676;28;20031;-73
2022/01/29 00:17:24;;;;;;;;;;;6.40;99.90;;;;;;5095470;28;19924;-76
2022/01/29 00:19:50;;;;;;;;;;;6.40;99.90;;;;;;5077514;28;20353;-76
2022/01/29 00:22:15;;;;;;;;;;;6.70;99.90;;;;;;5095591;28;19924;-73
2022/01/29 00:24:43;;;;;;;;;;;7.10;99.90;;;;;;5095299;28;19928;-75
2022/01/29 00:27:10;;;;;;;;;;;6.40;99.90;;;;;;5095601;28;20011;-73
2022/01/29 00:29:38;;;;;;;;;;;6.80;99.90;;;;;;5094214;28;19976;-72
2022/01/29 00:32:05;;;;;;;;;;;6.40;99.90;;;;;;5095249;28;20390;-74
2022/01/29 00:34:30;;;;;;;;;;;6.40;99.90;;;;;;5095110;28;19924;-75
2022/01/29 00:36:56;;;;;;;;;;;6.50;99.90;;;;;;5095367;28;19992;-73
2022/01/29 00:39:22;;;;;;;;;;;6.50;99.90;;;;;;5094353;28;19928;-76
2022/01/29 00:41:48;;;;;;;;;;;6.50;99.90;;;;;;5095196;28;20024;-74
2022/01/29 00:44:14;;;;;;;;;;;6.60;99.90;;;;;;5095075;28;19925;-73
2022/01/29 00:46:41;;;;;;;;;;;6.60;99.90;;;;;;5093959;28;20003;-72
2022/01/29 00:49:10;;;;;;;;;;;6.60;99.90;;;;;;5094736;28;19931;-76
2022/01/29 00:51:36;;;;;;;;;;;6.60;99.90;;;;;;5099772;28;19928;-73
2022/01/29 00:54:02;;;;;;;;;;;6.50;99.90;;;;;;5115351;28;19924;-73
2022/01/29 00:56:27;;;;;;;;;;;6.60;99.90;;;;;;5097301;28;20375;-72
2022/01/29 00:58:53;;;;;;;;;;;6.60;99.90;;;;;;5097120;28;19924;-76
2022/01/29 01:01:18;;;;;;;;;;;7.00;99.90;;;;;;5115115;28;19970;-73
2022/01/29 01:03:44;;;;;;;;;;;7.60;99.90;;;;;;5114915;28;19931;-73
2022/01/29 01:06:10;;;;;;;;;;;6.50;99.90;;;;;;5114819;28;19992;-75
2022/01/29 01:08:35;;;;;;;;;;;6.50;99.90;;;;;;5096901;28;20435;-74
2022/01/29 01:11:02;;;;;;;;;;;6.80;99.90;;;;;;5114218;28;19924;-73
2022/01/29 01:13:28;;;;;;;;;;;6.50;99.90;;;;;;5097108;28;20006;-74
2022/01/29 01:15:54;;;;;;;;;;;6.50;99.90;;;;;;5114763;28;20427;-74
2022/01/29 01:18:20;;;;;;;;;;;6.50;99.90;;;;;;5079604;28;19930;-72
2022/01/29 01:20:46;;;;;;;;;;;6.40;99.90;;;;;;5096406;28;19936;-72
2022/01/29 01:23:12;;;;;;;;;;;6.40;99.90;;;;;;5114499;28;20291;-76
2022/01/29 01:25:37;;;;;;;;;;;6.40;99.90;;;;;;5114742;28;20026;-73
2022/01/29 01:28:03;;;;;;;;;;;6.40;99.90;;;;;;5096829;28;19923;-75
2022/01/29 01:30:29;;;;;;;;;;;6.40;99.90;;;;;;5114410;28;19937;-73
2022/01/29 01:32:54;;;;;;;;;;;6.40;99.90;;;;;;5114425;28;19924;-73
2022/01/29 01:35:28;;;;;;;;;;;6.40;99.90;;;;;;5114393;28;20351;-76
2022/01/29 01:37:59;;;;;;;;;;;6.40;99.90;;;;;;5114716;28;20010;-73
2022/01/29 01:40:26;;;;;;;;;;;7.20;99.90;;;;;;5114575;28;19928;-73
2022/01/29 01:42:58;;;;;;;;;;;6.40;99.90;;;;;;5114439;28;19923;-75
2022/01/29 01:45:24;;;;;;;;;;;6.40;99.90;;;;;;5114303;28;20416;-74
2022/01/29 01:47:50;;;;;;;;;;;6.70;99.90;;;;;;5114193;28;19924;-73
2022/01/29 01:50:15;;;;;;;;;;;7.90;99.90;;;;;;5079227;28;19928;-73
2022/01/29 01:52:41;;;;;;;;;;;6.50;99.90;;;;;;5096097;28;19967;-74
2022/01/29 01:55:07;;;;;;;;;;;6.50;99.90;;;;;;5114265;28;19924;-73
2022/01/29 01:57:33;;;;;;;;;;;6.60;99.90;;;;;;5114232;28;19976;-73
2022/01/29 01:59:59;;;;;;;;;;;6.60;99.90;;;;;;5114026;28;19990;-73
2022/01/29 02:02:24;;;;;;;;;;;7.00;99.90;;;;;;5095950;28;19924;-73
2022/01/29 02:04:50;;;;;;;;;;;7.70;99.90;;;;;;5114016;28;19924;-74
2022/01/29 02:07:17;;;;;;;;;;;7.10;99.90;;;;;;5114318;28;19930;-73
2022/01/29 02:09:42;;;;;;;;;;;5.00;99.90;;;;;;5095863;28;19971;-75
2022/01/29 02:12:10;;;;;;;;;;;6.60;99.90;;;;;;5096239;28;19978;-73
2022/01/29 02:14:35;;;;;;;;;;;6.40;99.90;;;;;;5114072;28;19935;-74
2022/01/29 02:17:03;;;;;;;;;;;6.70;99.90;;;;;;5113928;28;20286;-74
2022/01/29 02:19:28;;;;;;;;;;;6.70;99.90;;;;;;5113900;28;20366;-72
2022/01/29 02:21:55;;;;;;;;;;;7.60;99.90;;;;;;5114895;28;20018;-74
2022/01/29 02:24:20;;;;;;;;;;;6.80;99.90;;;;;;5118178;28;19923;-73
2022/01/29 02:26:46;;;;;;;;;;;7.90;99.90;;;;;;5118088;28;19931;-75
2022/01/29 02:29:11;;;;;;;;;;;6.80;99.90;;;;;;5099351;28;20339;-73
2022/01/29 02:31:50;;;;;;;;;;;7.80;99.90;;;;;;5099824;28;20394;-75
2022/01/29 02:34:16;;;;;;;;;;;6.80;99.90;;;;;;5117879;28;19931;-76
2022/01/29 02:36:43;;;;;;;;;;;6.80;99.90;;;;;;5099948;28;19923;-74
2022/01/29 02:39:12;;;;;;;;;;;6.90;99.90;;;;;;5100086;28;19930;-73
2022/01/29 02:41:43;;;;;;;;;;;6.90;99.90;;;;;;5117857;28;19924;-74
2022/01/29 02:44:09;;;;;;;;;;;6.90;99.90;;;;;;5117703;28;20367;-73
2022/01/29 02:46:49;;;;;;;;;;;6.90;99.90;;;;;;5099497;28;20328;-75
2022/01/29 02:49:18;;;;;;;;;;;6.90;99.90;;;;;;5117754;28;19931;-76
2022/01/29 02:51:45;;;;;;;;;;;7.80;99.90;;;;;;5117644;28;19924;-74
2022/01/29 02:54:11;;;;;;;;;;;6.90;99.90;;;;;;5117613;28;20018;-75
2022/01/29 02:56:36;;;;;;;;;;;7.70;99.90;;;;;;5117512;28;20370;-73
2022/01/29 02:59:02;;;;;;;;;;;6.90;99.90;;;;;;5099542;28;19924;-73
2022/01/29 03:01:27;;;;;;;;;;;7.00;99.90;;;;;;5099144;28;19943;-76
2022/01/29 03:03:53;;;;;;;;;;;6.90;99.90;;;;;;5117451;28;20502;-75
2022/01/29 03:06:18;;;;;;;;;;;6.90;99.90;;;;;;5117464;28;19927;-73
2022/01/29 03:08:44;;;;;;;;;;;6.90;99.90;;;;;;5117330;28;19924;-75
2022/01/29 03:11:11;;;;;;;;;;;7.20;99.90;;;;;;5098848;28;20396;-73
2022/01/29 03:13:37;;;;;;;;;;;6.90;99.90;;;;;;5117279;28;19970;-74
2022/01/29 03:16:02;;;;;;;;;;;6.90;99.90;;;;;;5117106;28;19923;-73
2022/01/29 03:18:28;;;;;;;;;;;6.90;99.90;;;;;;5099021;28;19930;-75
2022/01/29 03:20:54;;;;;;;;;;;6.90;99.90;;;;;;5117165;28;20310;-74
2022/01/29 03:23:20;;;;;;;;;;;8.10;99.90;;;;;;5117177;28;19930;-73
2022/01/29 03:25:45;;;;;;;;;;;6.90;99.90;;;;;;5117174;28;20294;-76
2022/01/29 03:28:11;;;;;;;;;;;7.70;99.90;;;;;;5116944;28;19969;-74
2022/01/29 03:30:37;;;;;;;;;;;7.00;99.90;;;;;;5098559;28;19924;-75
2022/01/29 03:33:02;;;;;;;;;;;7.40;99.90;;;;;;5098245;28;19967;-74
2022/01/29 03:35:28;;;;;;;;;;;7.00;99.90;;;;;;5116503;28;20026;-76
2022/01/29 03:37:54;;;;;;;;;;;7.10;99.90;;;;;;5116911;28;19924;-74
2022/01/29 03:40:19;;;;;;;;;;;7.10;99.90;;;;;;5098598;28;19924;-77
2022/01/29 03:42:58;;;;;;;;;;;7.10;99.90;;;;;;5098505;28;19932;-74
2022/01/29 03:45:24;;;;;;;;;;;7.10;99.90;;;;;;5116557;28;20014;-75
2022/01/29 03:47:50;;;;;;;;;;;7.10;99.90;;;;;;5116334;28;19973;-73
2022/01/29 03:50:16;;;;;;;;;;;7.10;99.90;;;;;;5116630;28;19928;-73
2022/01/29 03:52:41;;;;;;;;;;;7.40;99.90;;;;;;5116273;28;19969;-76
2022/01/29 03:55:07;;;;;;;;;;;7.20;99.90;;;;;;5116432;28;19971;-73
2022/01/29 03:57:33;;;;;;;;;;;7.30;99.90;;;;;;5116444;28;19930;-75
2022/01/29 03:59:58;;;;;;;;;;;7.30;99.90;;;;;;5116157;28;19963;-73
2022/01/29 04:02:24;;;;;;;;;;;7.30;99.90;;;;;;5116073;28;19930;-74
2022/01/29 04:04:50;;;;;;;;;;;7.40;99.90;;;;;;5098343;28;20029;-75
2022/01/29 04:07:16;;;;;;;;;;;7.40;99.90;;;;;;5116303;28;19928;-73
2022/01/29 04:09:48;;;;;;;;;;;5.90;99.90;;;;;;5116099;28;19931;-73
2022/01/29 04:12:14;;;;;;;;;;;7.40;99.90;;;;;;5116111;28;19930;-73
2022/01/29 04:14:39;;;;;;;;;;;7.40;99.90;;;;;;5115993;28;20011;-75
2022/01/29 04:17:05;;;;;;;;;;;7.90;99.90;;;;;;5097869;28;20386;-73
2022/01/29 04:19:31;;;;;;;;;;;7.50;99.90;;;;;;5116167;28;19928;-73
2022/01/29 04:21:57;;;;;;;;;;;7.50;99.90;;;;;;5097805;28;20460;-73
2022/01/29 04:24:23;;;;;;;;;;;7.50;99.90;;;;;;5115995;28;19923;-73
2022/01/29 04:26:48;;;;;;;;;;;7.60;99.90;;;;;;5097888;28;19924;-76
2022/01/29 04:29:14;;;;;;;;;;;8.40;99.90;;;;;;5115739;28;19931;-73
2022/01/29 04:34:08;;;;;;;;;;;7.90;99.90;;;;;;5115391;28;20015;-74
2022/01/29 04:36:34;;;;;;;;;;;9.10;99.90;;;;;;5115791;28;19970;-74
2022/01/29 04:38:59;;;;;;;;;;;7.60;99.90;;;;;;5097590;28;19975;-74
2022/01/29 04:41:25;;;;;;;;;;;7.60;99.90;;;;;;5115575;28;20026;-73
2022/01/29 04:43:51;;;;;;;;;;;7.60;99.90;;;;;;5115573;28;19923;-73
2022/01/29 04:46:16;;;;;;;;;;;8.50;99.90;;;;;;5115412;28;19923;-73
2022/01/29 04:48:42;;;;;;;;;;;8.10;99.90;;;;;;5115246;28;19928;-74
2022/01/29 04:51:07;;;;;;;;;;;7.70;99.90;;;;;;5097266;28;19976;-76
2022/01/29 04:53:33;;;;;;;;;;;7.70;99.90;;;;;;5115193;28;19975;-76
2022/01/29 04:55:59;;;;;;;;;;;7.60;99.90;;;;;;5115252;28;20057;-74
2022/01/29 04:58:24;;;;;;;;;;;7.70;99.90;;;;;;5097192;28;20016;-75
2022/01/29 05:00:50;;;;;;;;;;;7.70;99.90;;;;;;5115074;28;20371;-73
2022/01/29 05:03:16;;;;;;;;;;;7.70;99.90;;;;;;5114979;28;19923;-74
2022/01/29 05:05:42;;;;;;;;;;;7.80;99.90;;;;;;5115197;28;19924;-74
2022/01/29 05:08:08;;;;;;;;;;;7.80;99.90;;;;;;5115066;28;19924;-74
2022/01/29 05:10:34;;;;;;;;;;;7.80;99.90;;;;;;5114919;28;19931;-73
2022/01/29 05:13:04;;;;;;;;;;;7.80;99.90;;;;;;5114928;28;19923;-73
2022/01/29 05:28:58;;;;;;;;;;;8.40;99.90;;;;;;5114656;28;20408;-73
2022/01/29 05:31:24;;;;;;;;;;;7.80;99.90;;;;;;5114679;28;19924;-74
2022/01/29 05:33:49;;;;;;;;;;;7.80;99.90;;;;;;5114451;28;20382;-73
2022/01/29 05:36:15;;;;;;;;;;;7.90;99.90;;;;;;5114562;28;19934;-77
2022/01/29 05:38:40;;;;;;;;;;;7.80;99.90;;;;;;5114531;28;19928;-72
2022/01/29 05:41:06;;;;;;;;;;;7.90;99.90;;;;;;5114352;28;19928;-73
2022/01/29 05:43:32;;;;;;;;;;;7.80;99.90;;;;;;5114576;28;19927;-73
2022/01/29 05:45:57;;;;;;;;;;;6.50;99.90;;;;;;5096528;28;19923;-72
2022/01/29 05:48:23;;;;;;;;;;;8.40;99.90;;;;;;5096179;28;19978;-74
2022/01/29 05:50:49;;;;;;;;;;;7.80;99.90;;;;;;5095939;28;19924;-74
2022/01/29 05:53:14;;;;;;;;;;;7.90;99.90;;;;;;5114474;28;19946;-75
2022/01/29 05:55:40;;;;;;;;;;;8.10;99.90;;;;;;5114148;28;19928;-74
2022/01/29 05:58:05;;;;;;;;;;;7.90;99.90;;;;;;5095698;28;20303;-74
2022/01/29 06:00:31;;;;;;;;;;;7.90;99.90;;;;;;5114390;28;19924;-76
2022/01/29 06:03:04;;;;;;;;;;;7.90;99.90;;;;;;5096344;28;19923;-75
2022/01/29 06:05:30;;;;;;;;;;;7.90;99.90;;;;;;5079084;28;19930;-72
2022/01/29 06:07:56;;;;;;;;;;;8.00;99.90;;;;;;5114114;28;19927;-76
2022/01/29 06:10:21;;;;;;;;;;;8.00;99.90;;;;;;5114058;28;19923;-74
2022/01/29 06:12:57;;;;;;;;;;;8.10;99.90;;;;;;5095750;28;20367;-75
2022/01/29 06:15:22;;;;;;;;;;;8.10;99.90;;;;;;5096288;28;19963;-76
2022/01/29 06:17:48;;;;;;;;;;;8.30;99.90;;;;;;5114107;28;20460;-74
2022/01/29 06:20:14;;;;;;;;;;;8.10;99.90;;;;;;5095461;28;20427;-74
2022/01/29 06:22:40;;;;;;;;;;;8.40;99.90;;;;;;5113969;28;19923;-74
2022/01/29 06:25:06;;;;;;;;;;;7.00;99.90;;;;;;5113841;28;19967;-75
2022/01/29 06:27:32;;;;;;;;;;;8.10;99.90;;;;;;5095902;28;20345;-73
2022/01/29 06:29:57;;;;;;;;;;;8.10;99.90;;;;;;5113968;28;20027;-76
2022/01/29 06:32:23;;;;;;;;;;;8.10;99.90;;;;;;5114074;28;19931;-73
2022/01/29 06:34:48;;;;;;;;;;;8.10;99.90;;;;;;5079063;28;20011;-74
2022/01/29 06:37:14;;;;;;;;;;;8.20;99.90;;;;;;5113871;28;19932;-75
2022/01/29 06:39:40;;;;;;;;;;;8.20;99.90;;;;;;5113747;28;20046;-74
2022/01/29 06:42:06;;;;;;;;;;;8.20;99.90;;;;;;5113683;28;19972;-74
2022/01/29 06:44:31;;;;;;;;;;;8.20;99.90;;;;;;5096008;28;19928;-74
2022/01/29 06:46:57;;;;;;;;;;;7.90;99.90;;;;;;5095763;28;20356;-73
2022/01/29 06:49:22;;;;;;;;;;;8.30;99.90;;;;;;5113657;28;19979;-73
2022/01/29 06:51:48;;;;;;;;;;;8.20;99.90;;;;;;5113575;28;19924;-72
2022/01/29 06:54:14;;;;;;;;;;;8.20;99.90;;;;;;5091800;28;19924;-73
2022/01/29 06:56:39;;;;;;;;;;;8.30;99.90;;;;;;5093188;28;19924;-75
2022/01/29 06:59:05;;;;;;;;;;;8.20;99.90;;;;;;5093394;28;19935;-74
2022/01/29 07:01:30;;;;;;;;;;;8.30;99.90;;;;;;5093403;28;20002;-76
2022/01/29 07:03:56;;;;;;;;;;;8.20;99.90;;;;;;5093216;28;19932;-73
2022/01/29 07:06:22;;;;;;;;;;;8.20;99.90;;;;;;5093289;28;19924;-77
2022/01/29 07:08:47;;;;;;;;;;;8.60;99.90;;;;;;5093882;28;20310;-74
2022/01/29 07:11:13;;;;;;;;;;;8.40;99.90;;;;;;5096765;28;20283;-75
2022/01/29 07:13:38;;;;;;;;;;;8.40;99.90;;;;;;5095695;28;19982;-74
2022/01/29 07:16:04;;;;;;;;;;;8.20;99.90;;;;;;5097022;28;19924;-73
2022/01/29 07:18:30;;;;;;;;;;;8.20;99.90;;;;;;5096866;28;20294;-73
2022/01/29 07:20:56;;;;;;;;;;;8.30;99.90;;;;;;5096807;28;19928;-73
2022/01/29 07:23:21;;;;;;;;;;;9.30;99.90;;;;;;5096591;28;19931;-76
2022/01/29 07:25:47;;;;;;;;;;;8.30;99.90;;;;;;5096667;28;19969;-73
2022/01/29 07:28:12;;;;;;;;;;;8.30;99.90;;;;;;5096532;28;19924;-73
2022/01/29 07:30:38;;;;;;;;;;;8.50;99.90;;;;;;5096723;28;19924;-74
2022/01/29 07:33:03;;;;;;;;;;;8.30;99.90;;;;;;5096523;28;20027;-73
2022/01/29 07:35:29;;;;;;;;;;;8.60;99.90;;;;;;5095482;28;20054;-74
2022/01/29 07:37:55;;;;;;;;;;;8.30;99.90;;;;;;5096467;28;19924;-73
2022/01/29 07:40:20;;;;;;;;;;;8.50;99.90;;;;;;5095450;28;20371;-73
2022/01/29 07:42:46;;;;;;;;;;;7.40;99.90;;;;;;5096315;28;20006;-76
2022/01/29 07:45:11;;;;;;;;;;;8.30;99.90;;;;;;5096133;28;19967;-73
2022/01/29 07:47:37;;;;;;;;;;;8.30;99.90;;;;;;5096191;28;20038;-74
2022/01/29 07:50:03;;;;;;;;;;;8.30;99.90;;;;;;5096138;28;19981;-74
2022/01/29 07:52:28;;;;;;;;;;;8.30;99.90;;;;;;5100003;28;20007;-73
2022/01/29 07:54:54;;;;;;;;;;;8.30;99.90;;;;;;5116500;28;19928;-73
2022/01/29 07:57:20;;;;;;;;;;;8.30;99.90;;;;;;5115414;28;20371;-75
2022/01/29 07:59:45;;;;;;;;;;;9.60;99.90;;;;;;5097941;28;19928;-76
2022/01/29 08:02:11;;;;;;;;;;;8.30;99.90;;;;;;5098099;28;19924;-73
2022/01/29 08:04:37;;;;;;;;;;;8.30;99.90;;;;;;5098093;28;20394;-74
2022/01/29 08:07:03;;;;;;;;;;;8.30;99.90;;;;;;5116243;28;19924;-73
2022/01/29 08:09:28;;;;;;;;;;;8.30;99.90;;;;;;5115910;28;20294;-73
2022/01/29 08:11:54;;;;;;;;;;;8.30;99.90;;;;;;5116048;28;19931;-73
2022/01/29 08:14:19;;;;;;;;;;;8.30;99.90;;;;;;5115919;28;20390;-75
2022/01/29 08:16:45;;;;;;;;;;;8.70;99.90;;;;;;5115820;28;20380;-75
2022/01/29 08:19:10;;;;;;;;;;;8.30;99.90;;;;;;5115569;28;19923;-73
2022/01/29 08:21:38;;;;;;;;;;;8.30;99.90;;;;;;5097840;28;19969;-73
2022/01/29 08:24:05;;;;;;;;;;;8.30;99.90;;;;;;5115900;28;19924;-74
2022/01/29 08:26:31;;;;;;;;;;;8.30;99.90;;;;;;5097839;28;20014;-73
2022/01/29 08:28:56;;;;;;;;;;;8.30;99.90;;;;;;5115672;28;20018;-75
2022/01/29 08:31:22;;;;;;;;;;;8.30;99.90;;;;;;5115456;28;20303;-73
2022/01/29 08:33:47;;;;;;;;;;;8.30;99.90;;;;;;5115730;28;19923;-77
2022/01/29 08:36:13;;;;;;;;;;;9.50;99.90;;;;;;5115701;28;19924;-73
2022/01/29 08:38:39;;;;;;;;;;;8.50;99.90;;;;;;5115663;28;19923;-74
2022/01/29 08:41:04;;;;;;;;;;;8.30;99.90;;;;;;5115666;28;20010;-74
2022/01/29 08:43:32;;;;;;;;;;;8.20;99.90;;;;;;5097205;28;19924;-73
2022/01/29 08:45:58;;;;;;;;;;;8.90;99.90;;;;;;5097365;28;19923;-73
2022/01/29 08:48:23;;;;;;;;;;;8.20;99.90;;;;;;5115442;28;19931;-74
2022/01/29 08:50:49;;;;;;;;;;;8.20;99.90;;;;;;5115292;28;20327;-74
2022/01/29 08:53:16;;;;;;;;;;;8.40;99.90;;;;;;5115077;28;19970;-73
2022/01/29 09:03:37;;;;;;;;;;;8.30;99.90;;;;;;5112463;28;19965;-73
2022/01/29 09:06:03;;;;;;;;;;;8.30;99.90;;;;;;5094838;28;20379;-74
2022/01/29 09:08:29;;;;;;;;;;;8.30;99.90;;;;;;5114959;28;19974;-76
2022/01/29 09:10:57;;;;;;;;;;;8.70;99.90;;;;;;5114760;28;19966;-74
2022/01/29 09:13:26;;;;;;;;;;;8.40;99.90;;;;;;5114905;28;20404;-77
2022/01/29 09:15:52;;;;;;;;;;;8.50;99.90;;;;;;5114611;28;19923;-74
2022/01/29 09:18:18;;;;;;;;;;;8.50;99.90;;;;;;5080047;28;19930;-73
2022/01/29 09:20:43;;;;;;;;;;;8.50;99.90;;;;;;5096504;28;19924;-74
2022/01/29 09:23:09;;;;;;;;;;;8.90;99.90;;;;;;5114828;28;20374;-74
2022/01/29 09:25:38;;;;;;;;;;;8.60;99.90;;;;;;5114768;28;19946;-74
2022/01/29 09:28:06;;;;;;;;;;;8.80;99.90;;;;;;5114611;28;19931;-73
2022/01/29 09:30:32;;;;;;;;;;;8.70;99.90;;;;;;5096153;28;19924;-78
2022/01/29 09:32:58;;;;;;;;;;;9.60;99.90;;;;;;5113951;28;19931;-73
2022/01/29 09:35:25;;;;;;;;;;;8.80;99.90;;;;;;5114445;28;19924;-73
2022/01/29 09:37:50;;;;;;;;;;;8.80;99.90;;;;;;5114501;28;20307;-72
2022/01/29 09:40:16;;;;;;;;;;;8.80;99.90;;;;;;5111843;28;19928;-73
2022/01/29 09:42:45;;;;;;;;;;;8.90;99.90;;;;;;5111657;28;19924;-73
2022/01/29 09:45:14;;;;;;;;;;;9.30;99.90;;;;;;5114311;28;19930;-73
2022/01/29 09:47:44;;;;;;;;;;;8.90;99.90;;;;;;5114523;28;20279;-73
2022/01/29 09:50:13;;;;;;;;;;;8.90;99.90;;;;;;5100496;28;19924;-75
2022/01/29 09:52:41;;;;;;;;;;;8.90;99.90;;;;;;5072112;28;20401;-74
2022/01/29 09:55:07;;;;;;;;;;;8.90;99.90;;;;;;5114253;28;19923;-73
2022/01/29 09:57:33;;;;;;;;;;;9.00;99.90;;;;;;5078656;28;19924;-76
2022/01/29 09:59:58;;;;;;;;;;;9.00;99.90;;;;;;5113920;28;19946;-76
2022/01/29 10:02:24;;;;;;;;;;;9.10;99.90;;;;;;5106301;28;19967;-73
2022/01/29 10:04:50;;;;;;;;;;;9.00;99.90;;;;;;5113406;28;19977;-73
2022/01/29 10:07:17;;;;;;;;;;;9.00;99.90;;;;;;5111289;28;19967;-73
2022/01/29 10:09:43;;;;;;;;;;;9.10;99.90;;;;;;5100840;28;19984;-73
2022/01/29 10:12:19;;;;;;;;;;;9.40;99.90;;;;;;5110821;28;20386;-76
2022/01/29 10:14:45;;;;;;;;;;;9.20;99.90;;;;;;5093724;28;19931;-76
2022/01/29 10:17:11;;;;;;;;;;;9.20;99.90;;;;;;5093642;28;19924;-73
2022/01/29 10:19:37;;;;;;;;;;;9.20;99.90;;;;;;5093718;28;19977;-73
2022/01/29 10:22:02;;;;;;;;;;;9.30;99.90;;;;;;5093602;28;19924;-77
2022/01/29 10:24:28;;;;;;;;;;;9.30;99.90;;;;;;5095129;28;19931;-75
2022/01/29 10:26:54;;;;;;;;;;;9.40;99.90;;;;;;5093605;28;19925;-75
2022/01/29 10:29:25;;;;;;;;;;;9.40;99.90;;;;;;5093409;28;20011;-73
2022/01/29 10:31:57;;;;;;;;;;;9.40;99.90;;;;;;5093731;28;19930;-73
2022/01/29 10:34:24;;;;;;;;;;;9.40;99.90;;;;;;5118431;27;19947;-77
2022/01/29 10:37:08;;;;;;;;;;;9.50;99.90;;;;;;5113930;28;20018;-72
2022/01/29 10:39:34;;;;;;;;;;;9.40;99.90;;;;;;5108201;28;19931;-73
2022/01/29 10:42:12;;;;;;;;;;;9.60;99.90;;;;;;5113546;28;19927;-75
2022/01/29 10:44:41;;;;;;;;;;;9.40;99.90;;;;;;5088002;28;19971;-73
2022/01/29 10:47:07;;;;;;;;;;;9.50;99.90;;;;;;5097574;28;19931;-73
2022/01/29 10:49:34;;;;;;;;;;;9.50;99.90;;;;;;5113141;28;19924;-76
2022/01/29 10:51:59;;;;;;;;;;;9.50;99.90;;;;;;5115467;28;19924;-76
2022/01/29 10:54:25;;;;;;;;;;;9.70;99.90;;;;;;5116520;28;20046;-73
2022/01/29 10:56:52;;;;;;;;;;;9.50;99.90;;;;;;5093552;28;20341;-72
2022/01/29 10:59:18;;;;;;;;;;;9.50;99.90;;;;;;5101533;28;19924;-73
2022/01/29 11:02:11;;;;;;;;;;;9.50;99.90;;;;;;5080499;28;20276;-77
2022/01/29 11:04:37;;;;;;;;;;;9.50;99.90;;;;;;5111575;28;19931;-75
2022/01/29 11:07:07;;;;;;;;;;;9.60;99.90;;;;;;5117253;28;19924;-73
2022/01/29 11:09:33;;;;;;;;;;;9.60;99.90;;;;;;5113812;27;20302;-72
2022/01/29 11:12:01;;;;;;;;;;;9.60;99.90;;;;;;5092204;28;19930;-73
2022/01/29 11:14:28;;;;;;;;;;;9.70;99.90;;;;;;5115726;27;19928;-72
2022/01/29 11:16:53;;;;;;;;;;;10.00;99.90;;;;;;5098188;28;19931;-75
2022/01/29 11:19:19;;;;;;;;;;;9.60;99.90;;;;;;5111077;27;19924;-75
2022/01/29 11:21:46;;;;;;;;;;;9.60;99.90;;;;;;5073296;28;19924;-72
2022/01/29 11:24:12;;;;;;;;;;;9.70;99.90;;;;;;5102756;27;19924;-74
2022/01/29 11:26:39;;;;;;;;;;;9.60;99.90;;;;;;5096614;28;19924;-73
2022/01/29 11:29:23;;;;;;;;;;;9.70;99.90;;;;;;5099614;27;19931;-72
2022/01/29 11:32:09;;;;;;;;;;;9.70;99.90;;;;;;5096431;28;19924;-73
2022/01/29 11:34:54;;;;;;;;;;;9.70;99.90;;;;;;5105667;27;20014;-76
2022/01/29 11:37:34;;;;;;;;;;;9.70;99.90;;;;;;5096326;28;19978;-73
2022/01/29 11:40:30;;;;;;;;;;;9.80;99.90;;;;;;5109946;27;19949;-73
2022/01/29 11:42:55;;;;;;;;;;;9.80;99.90;;;;;;5033631;28;19925;-73
2022/01/29 11:45:31;;;;;;;;;;;9.80;99.90;;;;;;5048516;28;19948;-72
2022/01/29 11:47:57;;;;;;;;;;;9.80;99.90;;;;;;5053020;28;20031;-72
2022/01/29 11:50:28;;;;;;;;;;;9.90;99.90;;;;;;5027576;28;20078;-73
2022/01/29 11:53:01;;;;;;;;;;;9.90;99.90;;;;;;5035783;28;19925;-76
2022/01/29 11:55:40;;;;;;;;;;;9.90;99.90;;;;;;5035234;28;19983;-72
2022/01/29 11:58:26;;;;;;;;;;;9.80;99.90;;;;;;5017182;28;19929;-72
2022/01/29 12:00:51;;;;;;;;;;;9.90;99.90;;;;;;5023188;28;19925;-73
2022/01/29 12:03:36;;;;;;;;;;;9.80;99.90;;;;;;5053572;28;20289;-73
2022/01/29 12:08:58;;;;;;;;;;;9.80;99.90;;;;;;5053320;28;20380;-73
2022/01/29 12:11:25;;;;;;;;;;;9.90;99.90;;;;;;5050384;28;20301;-73
2022/01/29 12:14:20;;;;;;;;;;;9.80;99.90;;;;;;5053190;28;20441;-72
2022/01/29 12:16:47;;;;;;;;;;;9.90;99.90;;;;;;5019891;28;19929;-74
2022/01/29 12:19:31;;;;;;;;;;;9.90;99.90;;;;;;5052091;28;20285;-72
2022/01/29 12:21:57;;;;;;;;;;;9.90;99.90;;;;;;5074603;28;19932;-72
2022/01/29 12:24:22;;;;;;;;;;;10.70;99.90;;;;;;5075068;28;20303;-72
2022/01/29 12:26:58;;;;;;;;;;;8.70;99.90;;;;;;5073991;28;19974;-74
2022/01/29 12:29:23;;;;;;;;;;;10.10;99.90;;;;;;5075580;28;19924;-72
2022/01/29 12:31:49;;;;;;;;;;;10.10;99.90;;;;;;5075166;28;19924;-74
2022/01/29 12:34:15;;;;;;;;;;;10.10;99.90;;;;;;5076492;28;19925;-72
2022/01/29 12:36:41;;;;;;;;;;;10.20;99.90;;;;;;5074069;28;20007;-76
2022/01/29 12:39:08;;;;;;;;;;;10.20;99.90;;;;;;5073923;28;19924;-72
2022/01/29 12:41:38;;;;;;;;;;;10.40;99.90;;;;;;5110520;27;19932;-72
2022/01/29 12:44:08;;;;;;;;;;;10.20;99.90;;;;;;5094405;28;19925;-75
2022/01/29 12:46:34;;;;;;;;;;;10.20;99.90;;;;;;5089871;28;19924;-71
2022/01/29 12:49:10;;;;;;;;;;;10.50;99.90;;;;;;5093340;28;19931;-72
2022/01/29 12:51:49;;;;;;;;;;;10.30;99.90;;;;;;5094818;28;19928;-73
2022/01/29 12:54:15;;;;;;;;;;;10.30;99.90;;;;;;5089173;28;19931;-73
2022/01/29 12:56:41;;;;;;;;;;;10.20;99.90;;;;;;5097465;28;19928;-75
2022/01/29 12:59:08;;;;;;;;;;;10.30;99.90;;;;;;5086888;28;19959;-74
2022/01/29 13:01:34;;;;;;;;;;;10.30;99.90;;;;;;5115173;28;19931;-73
2022/01/29 13:04:04;;;;;;;;;;;11.20;99.90;;;;;;5096984;28;20057;-71
2022/01/29 13:06:30;;;;;;;;;;;10.40;99.90;;;;;;5101999;28;20015;-73
2022/01/29 13:09:14;;;;;;;;;;;10.40;99.90;;;;;;5094488;28;20497;-73
2022/01/29 13:11:40;;;;;;;;;;;10.40;99.90;;;;;;5107788;28;19969;-72
2022/01/29 13:14:11;;;;;;;;;;;10.40;99.90;;;;;;5097149;28;19928;-72
2022/01/29 13:16:37;;;;;;;;;;;10.40;99.90;;;;;;5096331;28;20424;-72
2022/01/29 13:19:12;;;;;;;;;;;10.40;99.90;;;;;;5096641;28;19925;-71
2022/01/29 13:21:39;;;;;;;;;;;10.50;99.90;;;;;;5112764;28;19924;-72
2022/01/29 13:24:23;;;;;;;;;;;10.60;99.90;;;;;;5114066;28;19931;-73
2022/01/29 13:26:59;;;;;;;;;;;10.50;99.90;;;;;;5114547;28;19931;-74
2022/01/29 13:29:35;;;;;;;;;;;10.50;99.90;;;;;;5114424;28;19924;-73
2022/01/29 13:32:02;;;;;;;;;;;10.50;99.90;;;;;;5114311;28;19980;-72
2022/01/29 13:34:27;;;;;;;;;;;10.50;99.90;;;;;;5096411;28;19923;-74
2022/01/29 13:36:53;;;;;;;;;;;10.50;99.90;;;;;;5114458;28;20360;-72
2022/01/29 13:39:19;;;;;;;;;;;10.60;99.90;;;;;;5096212;28;20424;-73
2022/01/29 13:41:44;;;;;;;;;;;10.60;99.90;;;;;;5095504;28;19927;-73
2022/01/29 13:44:11;;;;;;;;;;;10.60;99.90;;;;;;5112829;28;20003;-72
2022/01/29 13:46:37;;;;;;;;;;;10.70;99.90;;;;;;5113151;28;19924;-72
2022/01/29 13:49:03;;;;;;;;;;;10.90;99.90;;;;;;5113496;28;19924;-73
2022/01/29 13:51:41;;;;;;;;;;;10.80;99.90;;;;;;5114092;28;20030;-73
2022/01/29 13:54:07;;;;;;;;;;;10.80;99.90;;;;;;5113924;28;19938;-74
2022/01/29 13:56:34;;;;;;;;;;;10.80;99.90;;;;;;5114127;28;20018;-74
2022/01/29 13:59:03;;;;;;;;;;;10.80;99.90;;;;;;5096053;28;19931;-73
2022/01/29 14:01:35;;;;;;;;;;;10.80;99.90;;;;;;5113912;28;20050;-72
2022/01/29 14:04:02;;;;;;;;;;;10.80;99.90;;;;;;5096305;28;19923;-74
2022/01/29 14:06:40;;;;;;;;;;;10.80;99.90;;;;;;5113800;28;20397;-73
2022/01/29 14:09:20;;;;;;;;;;;10.90;99.90;;;;;;5113944;28;19928;-75
2022/01/29 14:12:05;;;;;;;;;;;10.90;99.90;;;;;;5114203;28;20334;-73
2022/01/29 14:14:35;;;;;;;;;;;10.90;99.90;;;;;;5096083;28;19923;-72
2022/01/29 14:17:04;;;;;;;;;;;10.90;99.90;;;;;;5114012;28;19990;-73
2022/01/29 14:19:31;;;;;;;;;;;11.00;99.90;;;;;;5117645;28;19968;-75
2022/01/29 14:21:59;;;;;;;;;;;11.00;99.90;;;;;;5118034;28;19923;-75
2022/01/29 14:24:26;;;;;;;;;;;10.90;99.90;;;;;;5117854;28;19923;-73
2022/01/29 14:26:52;;;;;;;;;;;10.90;99.90;;;;;;5118002;28;19968;-73
2022/01/29 14:29:18;;;;;;;;;;;10.90;99.90;;;;;;5117990;28;20006;-72
2022/01/29 14:31:45;;;;;;;;;;;10.90;99.90;;;;;;5117614;28;19984;-73
2022/01/29 14:34:11;;;;;;;;;;;10.90;99.90;;;;;;5117635;28;19924;-73
2022/01/29 14:36:37;;;;;;;;;;;10.90;99.90;;;;;;5117549;28;19983;-74
2022/01/29 14:39:05;;;;;;;;;;;10.90;99.90;;;;;;5117715;28;19924;-72
2022/01/29 14:41:32;;;;;;;;;;;11.10;99.90;;;;;;5117904;28;19934;-73
2022/01/29 14:43:59;;;;;;;;;;;11.00;99.90;;;;;;5117871;28;19924;-74
2022/01/29 14:46:26;;;;;;;;;;;11.00;99.90;;;;;;5117488;28;20333;-73
2022/01/29 14:48:53;;;;;;;;;;;11.00;99.90;;;;;;5083016;28;20278;-72
2022/01/29 14:51:22;;;;;;;;;;;11.00;99.90;;;;;;5098867;28;19959;-73
2022/01/29 14:53:49;;;;;;;;;;;11.00;99.90;;;;;;5116843;28;19978;-72
2022/01/29 14:56:15;;;;;;;;;;;11.00;99.90;;;;;;5117319;28;19971;-74